Terminal Aerodrome Forecast
Issued by NWS

Home | Current Version | Previous Version | Graphics & Text | Print | Product List | Glossary On
Versions: 1 2 3 4 5 6 7 8 9 10 11 12 13
570
FTUS43 KICT 252320
TAFHUT
TAF
KHUT 252320Z 2600/2624 35007KT P6SM BKN250
     FM260400 36005KT P6SM SKC
     FM261500 VRB05KT P6SM SKC=

USA.gov is the U.S. government's official web portal to all federal, state and local government web resources and services.